Time;durP1;ratioP1;P1;durP2;ratioP2;P2;SDS_P1;SDS_P2;PMS_P1;PMS_P2;Temp;Humidity;BMP_temperature;BMP_pressure;BME280_temperature;BME280_humidity;BME280_pressure;Samples;Min_cycle;Max_cycle;Signal;HPM_P1;HPM_P2
2022/12/06 00:00:26;;;;;;;;;;;179.20;2252.80;;;;;;5006364;28;20017;-76
2022/12/06 00:02:51;;;;;;;7.43;4.25;;;179.20;2252.80;;;;;;5016874;28;19975;-77
2022/12/06 00:05:17;;;;;;;;;;;154.50;2252.80;;;;;;5012612;28;20082;-76
2022/12/06 00:07:43;;;;;;;11.50;4.75;;;179.20;2252.80;;;;;;5012000;28;20269;-76
2022/12/06 00:10:08;;;;;;;;;;;179.20;2252.80;;;;;;5012478;28;20116;-76
2022/12/06 00:12:34;;;;;;;10.65;4.68;;;179.20;2252.80;;;;;;5012549;28;19905;-76
2022/12/06 00:14:59;;;;;;;;;;;179.20;2252.80;;;;;;5012083;28;20026;-76
2022/12/06 00:17:26;;;;;;;10.75;5.45;;;179.30;2252.80;;;;;;5012143;28;19905;-75
2022/12/06 00:19:52;;;;;;;8.43;4.30;;;179.20;2252.80;;;;;;5012696;28;20121;-76
2022/12/06 00:22:17;;;;;;;;;;;179.20;2252.80;;;;;;5012495;28;20129;-76
2022/12/06 00:24:43;;;;;;;8.30;4.70;;;179.20;2252.80;;;;;;5011784;28;19940;-77
2022/12/06 00:27:08;;;;;;;;;;;179.20;2252.80;;;;;;5015353;28;20022;-77
2022/12/06 00:29:34;;;;;;;11.05;4.88;;;179.20;2252.80;;;;;;5020856;28;19959;-75
2022/12/06 00:31:59;;;;;;;;;;;179.20;2252.80;;;;;;5009131;28;20026;-76
2022/12/06 00:34:25;;;;;;;12.30;4.78;;;179.20;2252.80;;;;;;5008610;28;20288;-77
2022/12/06 00:36:51;;;;;;;;;;;179.30;2252.80;;;;;;5007518;28;20018;-76
2022/12/06 00:39:17;;;;;;;16.83;4.57;;;179.30;2252.80;;;;;;5013153;28;20005;-76
2022/12/06 00:41:43;;;;;;;10.02;5.43;;;179.20;2252.80;;;;;;5008820;28;20362;-76
2022/12/06 00:44:09;;;;;;;;;;;179.30;2252.80;;;;;;5028943;28;20022;-76
2022/12/06 00:46:35;;;;;;;9.00;3.92;;;179.30;2252.80;;;;;;5024283;28;19912;-76
2022/12/06 00:49:03;;;;;;;8.77;4.07;;;179.20;2252.80;;;;;;5011459;28;20125;-75
2022/12/06 00:51:31;;;;;;;8.35;4.32;;;179.20;2252.80;;;;;;5012662;28;20508;-77
2022/12/06 00:53:57;;;;;;;8.48;3.75;;;179.30;2252.80;;;;;;5012309;28;20046;-75
2022/12/06 00:56:23;;;;;;;13.75;5.65;;;179.30;2252.80;;;;;;5013233;28;20029;-76
2022/12/06 00:58:49;;;;;;;;;;;179.30;2252.80;;;;;;5015026;28;20048;-76
2022/12/06 01:01:16;;;;;;;8.38;3.80;;;179.30;2252.80;;;;;;5014834;28;20365;-76
2022/12/06 01:03:43;;;;;;;10.13;4.30;;;179.30;2252.80;;;;;;5011019;28;20880;-76
2022/12/06 01:06:14;;;;;;;8.80;4.65;;;179.30;2252.80;;;;;;5012432;28;20034;-76
2022/12/06 01:08:41;;;;;;;10.32;5.07;;;179.30;2252.80;;;;;;5002424;28;20037;-76
2022/12/06 01:11:08;;;;;;;8.95;4.45;;;179.30;2252.80;;;;;;5018069;28;20109;-76
2022/12/06 01:13:34;;;;;;;11.35;5.00;;;179.30;2252.80;;;;;;5001023;28;20057;-76
2022/12/06 01:16:08;;;;;;;8.75;4.20;;;179.40;2252.80;;;;;;5019660;28;20080;-76
2022/12/06 01:18:34;;;;;;;7.80;3.88;;;179.40;2252.80;;;;;;5017861;28;20096;-75
2022/12/06 01:21:07;;;;;;;;;;;179.40;2252.80;;;;;;5014681;28;20071;-76
2022/12/06 01:23:33;;;;;;;13.27;5.85;;;179.40;2252.80;;;;;;5017009;28;20330;-76
2022/12/06 01:25:59;;;;;;;10.07;4.30;;;179.40;2252.80;;;;;;5025173;28;20018;-76
2022/12/06 01:28:25;;;;;;;;;;;179.40;2252.80;;;;;;5016783;28;20385;-76
2022/12/06 01:30:50;;;;;;;7.57;3.90;;;179.40;2252.80;;;;;;5016101;28;19940;-76
2022/12/06 01:33:16;;;;;;;;;;;179.40;2252.80;;;;;;5030681;28;20096;-76
2022/12/06 01:35:42;;;;;;;9.07;4.47;;;179.30;2252.80;;;;;;5018217;28;19996;-76
2022/12/06 01:38:08;;;;;;;;;;;179.30;2252.80;;;;;;5018373;28;20029;-76
2022/12/06 01:40:42;;;;;;;9.82;4.47;;;179.30;2252.80;;;;;;5034945;28;19905;-76
2022/12/06 01:43:38;;;;;;;7.90;4.80;;;179.30;2252.80;;;;;;5035803;28;20029;-76
2022/12/06 01:46:12;;;;;;;10.05;4.30;;;179.30;2252.80;;;;;;5020371;28;20079;-77
2022/12/06 01:48:40;;;;;;;6.95;3.78;;;179.20;2252.80;;;;;;5018077;28;20030;-76
2022/12/06 01:51:08;;;;;;;8.60;4.00;;;179.30;2252.80;;;;;;5031071;28;20068;-76
2022/12/06 01:53:35;;;;;;;9.60;4.45;;;179.20;2252.80;;;;;;5008022;28;20049;-76
2022/12/06 01:56:01;;;;;;;8.77;4.35;;;179.20;2252.80;;;;;;5019541;28;20105;-77
2022/12/06 01:58:31;;;;;;;;;;;179.20;2252.80;;;;;;5006458;28;20121;-76
2022/12/06 02:00:56;;;;;;;6.82;3.83;;;179.20;2252.80;;;;;;5013979;28;19912;-76
2022/12/06 02:03:23;;;;;;;;;;;154.50;2252.80;;;;;;5002890;28;20091;-76
2022/12/06 02:05:49;;;;;;;9.40;4.20;;;154.50;2252.80;;;;;;5020680;28;19909;-76
2022/12/06 02:08:15;;;;;;;;;;;154.50;2252.80;;;;;;5009004;28;20762;-76
2022/12/06 02:10:40;;;;;;;8.15;4.75;;;154.50;2252.80;;;;;;5008213;28;19905;-76
2022/12/06 02:13:07;;;;;;;;;;;154.50;2252.80;;;;;;5011895;28;20029;-76
2022/12/06 02:16:10;;;;;;;8.48;4.07;;;154.40;2252.80;;;;;;5014156;28;19912;-76
2022/12/06 02:19:08;;;;;;;8.85;4.03;;;154.40;2252.80;;;;;;5019200;28;20026;-76
2022/12/06 02:21:45;;;;;;;8.85;4.05;;;154.40;2252.80;;;;;;4965402;28;20035;-76
2022/12/06 02:24:23;;;;;;;11.30;5.80;;;154.50;2252.80;;;;;;4975982;28;20081;-76
2022/12/06 02:26:58;;;;;;;8.25;4.40;;;154.50;2252.80;;;;;;4982002;28;20039;-76
2022/12/06 02:29:39;;;;;;;10.02;4.82;;;154.40;2252.80;;;;;;4981785;28;20023;-76
2022/12/06 02:32:18;;;;;;;8.88;4.40;;;154.40;2252.80;;;;;;4970695;28;20034;-76
2022/12/06 02:35:18;;;;;;;11.48;5.43;;;154.40;2252.80;;;;;;4982870;28;20025;-76
2022/12/06 02:37:52;;;;;;;9.15;4.50;;;154.30;2252.80;;;;;;4927447;28;20060;-76
2022/12/06 02:40:27;;;;;;;11.43;4.90;;;154.30;2252.80;;;;;;4939970;29;20039;-75
2022/12/06 02:42:57;;;;;;;10.43;4.70;;;154.20;2252.80;;;;;;4936848;29;20042;-75
2022/12/06 02:45:27;;;;;;;9.63;4.65;;;154.20;2252.80;;;;;;4934328;29;20053;-76
2022/12/06 02:47:56;;;;;;;12.02;5.57;;;154.20;2252.80;;;;;;4928616;29;20027;-76
2022/12/06 02:50:39;;;;;;;10.90;4.95;;;154.20;2252.80;;;;;;4935726;29;20055;-76
2022/12/06 02:53:08;;;;;;;10.90;5.45;;;154.20;2252.80;;;;;;4926499;29;20047;-77
2022/12/06 02:55:34;;;;;;;9.93;5.35;;;154.20;2252.80;;;;;;4926143;29;20075;-77
2022/12/06 02:58:00;;;;;;;9.90;4.22;;;154.20;2252.80;;;;;;4929500;29;20103;-76
2022/12/06 03:00:31;;;;;;;11.00;4.90;;;154.10;2252.80;;;;;;4953308;28;20028;-76
2022/12/06 03:03:19;;;;;;;10.43;4.97;;;154.10;2252.80;;;;;;4953505;28;20035;-75
2022/12/06 03:06:01;;;;;;;8.43;3.92;;;154.10;2252.80;;;;;;4955476;28;20040;-75
2022/12/06 03:08:58;;;;;;;9.05;4.53;;;154.10;2252.80;;;;;;4961913;28;20031;-76
2022/12/06 03:11:30;;;;;;;;;;;154.20;2252.80;;;;;;4956358;28;20023;-76
2022/12/06 03:14:02;;;;;;;9.98;4.65;;;154.10;2252.80;;;;;;4994942;28;19914;-76
2022/12/06 03:16:42;;;;;;;9.10;4.60;;;154.10;2252.80;;;;;;5015292;28;20115;-76
2022/12/06 03:19:23;;;;;;;10.35;4.68;;;154.10;2252.80;;;;;;4998251;28;20030;-76
2022/12/06 03:22:13;;;;;;;11.75;4.50;;;154.10;2252.80;;;;;;5006789;28;20478;-76
2022/12/06 03:24:41;;;;;;;14.60;5.18;;;154.10;2252.80;;;;;;5020100;28;20026;-76
2022/12/06 03:27:11;;;;;;;13.63;4.40;;;154.20;2252.80;;;;;;5007076;28;20025;-76
2022/12/06 03:29:42;;;;;;;9.50;4.60;;;154.20;2252.80;;;;;;5022353;28;20018;-75
2022/12/06 03:32:11;;;;;;;10.05;5.45;;;154.20;2252.80;;;;;;5017412;28;20030;-77
2022/12/06 03:34:40;;;;;;;11.63;4.70;;;154.20;2252.80;;;;;;5009018;28;20035;-75
2022/12/06 03:37:10;;;;;;;9.00;4.65;;;154.20;2252.80;;;;;;5021901;28;20033;-76
2022/12/06 03:40:03;;;;;;;9.45;4.85;;;154.20;2252.80;;;;;;5009561;28;20018;-76
2022/12/06 03:42:30;;;;;;;10.32;4.32;;;154.20;2252.80;;;;;;5000761;28;20064;-75
2022/12/06 03:44:57;;;;;;;8.57;4.57;;;154.20;2252.80;;;;;;5005901;28;20065;-75
2022/12/06 03:47:25;;;;;;;12.43;6.10;;;154.20;2252.80;;;;;;5003117;28;20033;-75
2022/12/06 03:49:59;;;;;;;8.63;4.43;;;154.20;2252.80;;;;;;5014194;28;20030;-76
2022/12/06 03:52:28;;;;;;;8.95;4.10;;;154.20;2252.80;;;;;;5016947;28;20044;-75
2022/12/06 03:54:54;;;;;;;10.48;4.60;;;154.20;2252.80;;;;;;5005597;28;20051;-75
2022/12/06 03:57:20;;;;;;;;;;;154.20;2252.80;;;;;;5009255;28;20060;-75
2022/12/06 03:59:46;;;;;;;9.52;3.85;;;154.20;2252.80;;;;;;5003333;28;20330;-76
2022/12/06 04:02:11;;;;;;;;;;;154.20;2252.80;;;;;;5003780;28;20029;-75
2022/12/06 04:04:37;;;;;;;9.32;4.13;;;154.20;2252.80;;;;;;5000305;28;19923;-76
2022/12/06 04:07:02;;;;;;;;;;;154.20;2252.80;;;;;;5009161;28;20116;-75
2022/12/06 04:14:56;;;;;;;10.45;4.72;;;154.20;2252.80;;;;;;5018158;28;20106;-76
2022/12/06 04:20:07;;;;;;;11.70;4.40;;;154.20;2252.80;;;;;;5018258;28;19999;-75
2022/12/06 04:25:16;;;;;;;12.00;4.75;;;154.20;2252.80;;;;;;5017860;28;20056;-77
2022/12/06 04:38:43;;;;;;;9.60;3.60;;;154.20;2252.80;;;;;;5023167;28;20028;-75
2022/12/06 04:43:40;;;;;;;9.15;4.45;;;154.20;2252.80;;;;;;5018676;28;20085;-75
2022/12/06 04:43:58;;;;;;;9.13;3.90;;;154.20;2252.80;;;;;;5017410;28;20018;-76
2022/12/06 04:46:24;;;;;;;;;;;154.20;2252.80;;;;;;5005871;28;20083;-75
2022/12/06 04:48:50;;;;;;;8.68;3.60;;;154.20;2252.80;;;;;;5018896;28;19913;-75
2022/12/06 04:51:15;;;;;;;;;;;154.20;2252.80;;;;;;5017344;28;20021;-75
2022/12/06 04:53:41;;;;;;;7.30;3.10;;;154.20;2252.80;;;;;;5014886;28;19917;-76
2022/12/06 04:56:07;;;;;;;;;;;154.10;2252.80;;;;;;5003035;28;20100;-75
2022/12/06 04:58:33;;;;;;;8.88;3.40;;;154.10;2252.80;;;;;;5004625;28;19908;-75
2022/12/06 05:00:59;;;;;;;8.63;3.00;;;154.10;2252.80;;;;;;5015716;28;20014;-76
2022/12/06 05:03:25;;;;;;;;;;;154.10;2252.80;;;;;;5017850;28;20383;-76
2022/12/06 05:05:51;;;;;;;7.25;3.60;;;154.10;2252.80;;;;;;5004319;28;19963;-76
2022/12/06 05:08:16;;;;;;;;;;;154.10;2252.80;;;;;;5021224;28;20026;-76
2022/12/06 05:10:49;;;;;;;5.95;2.80;;;154.10;2252.80;;;;;;5010654;28;19909;-75
2022/12/06 05:13:18;;;;;;;11.52;5.07;;;154.10;2252.80;;;;;;5020005;28;20057;-76
2022/12/06 05:15:50;;;;;;;6.82;3.63;;;154.10;2252.80;;;;;;5005148;28;20605;-75
2022/12/06 05:18:16;;;;;;;7.60;3.28;;;154.20;2252.80;;;;;;5020774;28;20052;-76
2022/12/06 05:20:41;;;;;;;;;;;154.20;2252.80;;;;;;5002491;28;20068;-76
2022/12/06 05:23:07;;;;;;;9.40;3.55;;;154.20;2252.80;;;;;;5019773;28;19909;-75
2022/12/06 05:25:33;;;;;;;;;;;154.20;2252.80;;;;;;5010314;28;20030;-75
2022/12/06 05:27:58;;;;;;;5.90;3.30;;;154.20;2252.80;;;;;;5013880;28;20056;-76
2022/12/06 05:30:24;;;;;;;;;;;154.20;2252.80;;;;;;5014477;28;20478;-76
2022/12/06 05:32:50;;;;;;;7.45;3.58;;;154.30;2252.80;;;;;;5016067;28;20003;-76
2022/12/06 05:35:15;;;;;;;;;;;154.30;2252.80;;;;;;5017201;28;20025;-75
2022/12/06 05:37:41;;;;;;;7.75;3.75;;;154.30;2252.80;;;;;;5019852;28;20365;-75
2022/12/06 05:40:07;;;;;;;;;;;154.30;2252.80;;;;;;5014262;28;20273;-75
2022/12/06 05:42:32;;;;;;;5.25;3.08;;;154.40;2252.80;;;;;;5004375;28;19912;-76
2022/12/06 05:44:58;;;;;;;;;;;154.40;2252.80;;;;;;5012084;28;20124;-75
2022/12/06 05:47:24;;;;;;;7.50;3.47;;;154.50;2252.80;;;;;;5007857;28;19913;-76
2022/12/06 05:49:50;;;;;;;;;;;154.50;2252.80;;;;;;5020189;28;20026;-76
2022/12/06 05:52:16;;;;;;;7.18;3.75;;;154.50;2252.80;;;;;;5015657;28;19955;-76
2022/12/06 05:54:41;;;;;;;;;;;154.50;2252.80;;;;;;5014181;28;20121;-76
2022/12/06 05:57:07;;;;;;;7.15;3.17;;;154.50;2252.80;;;;;;5015773;28;20197;-76
2022/12/06 05:59:32;;;;;;;;;;;154.50;2252.80;;;;;;5009889;28;20037;-75
2022/12/06 06:01:58;;;;;;;9.85;4.22;;;154.50;2252.80;;;;;;5015537;28;19905;-76
2022/12/06 06:04:24;;;;;;;;;;;154.50;2252.80;;;;;;5012707;28;20042;-76
2022/12/06 06:06:50;;;;;;;14.73;4.38;;;179.20;2252.80;;;;;;5010140;28;19945;-76
2022/12/06 06:09:16;;;;;;;9.32;3.92;;;179.20;2252.80;;;;;;5019509;28;20500;-75
2022/12/06 06:11:41;;;;;;;;;;;179.20;2252.80;;;;;;5007993;28;20164;-75
2022/12/06 06:14:07;;;;;;;9.05;3.47;;;179.20;2252.80;;;;;;5008209;28;20404;-76
2022/12/06 06:16:33;;;;;;;;;;;179.20;2252.80;;;;;;5026345;28;20037;-76
2022/12/06 06:19:00;;;;;;;9.07;4.00;;;154.50;2252.80;;;;;;5006740;28;19904;-76
2022/12/06 06:21:26;;;;;;;8.65;3.70;;;179.20;2252.80;;;;;;5023611;28;20467;-76
2022/12/06 06:23:55;;;;;;;7.22;3.42;;;179.20;2252.80;;;;;;5020734;28;20030;-75
2022/12/06 06:26:20;;;;;;;10.30;4.05;;;179.20;2252.80;;;;;;5008155;28;20041;-76
2022/12/06 06:28:46;;;;;;;;;;;179.20;2252.80;;;;;;5009089;28;20029;-76
2022/12/06 06:31:12;;;;;;;9.55;4.63;;;179.20;2252.80;;;;;;5014787;28;19909;-76
2022/12/06 06:33:38;;;;;;;;;;;179.20;2252.80;;;;;;5015489;28;20025;-75
2022/12/06 06:36:03;;;;;;;6.25;3.28;;;179.20;2252.80;;;;;;5013687;28;19909;-75
2022/12/06 06:38:29;;;;;;;;;;;179.20;2252.80;;;;;;5015644;28;20025;-76
2022/12/06 06:40:55;;;;;;;10.55;3.78;;;179.20;2252.80;;;;;;5015476;28;19999;-76
2022/12/06 06:43:20;;;;;;;;;;;179.20;2252.80;;;;;;5017479;28;20056;-76
2022/12/06 06:45:58;;;;;;;10.07;3.85;;;179.20;2252.80;;;;;;5033352;28;19956;-77
2022/12/06 06:48:26;;;;;;;11.77;4.15;;;179.20;2252.80;;;;;;5006938;28;20021;-78
2022/12/06 06:50:52;;;;;;;9.85;3.90;;;179.20;2252.80;;;;;;5015652;28;20032;-75
2022/12/06 06:53:18;;;;;;;;;;;179.20;2252.80;;;;;;5015179;28;20037;-76
2022/12/06 06:55:45;;;;;;;11.40;4.28;;;179.30;2252.80;;;;;;5027046;28;19905;-76
2022/12/06 06:58:13;;;;;;;6.82;3.45;;;179.30;2252.80;;;;;;5016199;28;20041;-77
2022/12/06 07:00:39;;;;;;;9.43;3.45;;;179.30;2252.80;;;;;;5001765;28;20014;-76
2022/12/06 07:03:05;;;;;;;7.60;3.78;;;179.30;2252.80;;;;;;5023581;28;20033;-77
2022/12/06 07:05:31;;;;;;;;;;;179.40;2252.80;;;;;;5007513;28;20718;-76
2022/12/06 07:07:56;;;;;;;10.02;3.13;;;179.40;2252.80;;;;;;5021794;28;19912;-76
2022/12/06 07:10:24;;;;;;;;;;;179.40;2252.80;;;;;;5016980;28;20026;-77
2022/12/06 07:12:50;;;;;;;8.75;3.70;;;179.40;2252.80;;;;;;5034396;28;20276;-76
2022/12/06 07:15:16;;;;;;;;;;;179.40;2252.80;;;;;;5015430;28;20025;-75
2022/12/06 07:17:42;;;;;;;9.38;4.25;;;179.50;2252.80;;;;;;5013228;28;20306;-76
2022/12/06 07:20:09;;;;;;;;;;;179.50;2252.80;;;;;;5013528;28;20068;-76
2022/12/06 07:22:35;;;;;;;7.05;3.25;;;179.60;2252.80;;;;;;5009722;28;20023;-77
2022/12/06 07:25:01;;;;;;;10.50;5.10;;;179.60;2252.80;;;;;;5016090;28;20042;-76
2022/12/06 07:27:26;;;;;;;;;;;179.70;2252.80;;;;;;5033365;28;20022;-76
2022/12/06 07:29:52;;;;;;;13.55;7.30;;;179.80;2252.80;;;;;;5016210;28;19906;-77
2022/12/06 07:32:17;;;;;;;;;;;179.90;2252.80;;;;;;5012936;28;20022;-77
2022/12/06 07:34:43;;;;;;;21.60;8.82;;;180.00;2252.80;;;;;;5014258;28;19920;-76
2022/12/06 07:37:09;;;;;;;;;;;180.00;2252.80;;;;;;5012825;28;20474;-77
2022/12/06 07:39:35;;;;;;;8.93;4.47;;;180.00;2252.80;;;;;;5016497;28;19909;-76
2022/12/06 07:45:00;;;;;;;6.30;3.55;;;180.00;2252.80;;;;;;5026805;28;20458;-76
2022/12/06 07:47:30;;;;;;;19.33;7.57;;;180.00;2252.80;;;;;;5018604;28;20021;-76
2022/12/06 07:49:56;;;;;;;13.38;5.32;;;180.00;2252.80;;;;;;5013801;28;20125;-77
2022/12/06 07:52:21;;;;;;;;;;;180.00;2252.80;;;;;;5012968;28;20530;-76
2022/12/06 07:54:47;;;;;;;25.08;11.93;;;180.10;2252.80;;;;;;5012317;28;19963;-77
2022/12/06 07:57:13;;;;;;;;;;;180.10;2252.80;;;;;;5008415;28;20128;-75
2022/12/06 07:59:38;;;;;;;11.77;6.85;;;180.10;2252.80;;;;;;5017872;28;19936;-78
2022/12/06 08:02:04;;;;;;;;;;;180.10;2252.80;;;;;;5016141;28;20033;-77
2022/12/06 08:04:30;;;;;;;23.77;10.75;;;204.80;2252.80;;;;;;5031384;28;20375;-77
2022/12/06 08:06:56;;;;;;;;;;;204.80;2252.80;;;;;;5015935;28;20041;-78
2022/12/06 08:09:23;;;;;;;23.92;9.77;;;204.90;2252.80;;;;;;5032025;28;19905;-76
2022/12/06 08:11:49;;;;;;;18.38;8.30;;;204.90;2252.80;;;;;;5031607;28;20096;-76
2022/12/06 08:14:14;;;;;;;;;;;205.00;2252.80;;;;;;5033672;28;20141;-78
2022/12/06 08:16:40;;;;;;;18.08;7.18;;;205.00;2252.80;;;;;;5015372;28;19905;-78
2022/12/06 08:19:06;;;;;;;22.52;8.25;;;205.00;2252.80;;;;;;5015332;28;20037;-77
2022/12/06 08:21:32;;;;;;;;;;;205.00;2252.80;;;;;;5019339;28;20022;-76
2022/12/06 08:23:58;;;;;;;13.63;6.28;;;205.00;2252.80;;;;;;5032702;28;19908;-77
2022/12/06 08:26:23;;;;;;;;;;;205.00;2252.80;;;;;;5015617;28;20120;-76
2022/12/06 08:28:50;;;;;;;11.88;4.85;;;205.10;2252.80;;;;;;5015137;28;19936;-77
2022/12/06 08:31:18;;;;;;;12.75;6.57;;;205.00;2252.80;;;;;;5014997;28;20021;-77
2022/12/06 08:33:44;;;;;;;12.45;5.72;;;205.10;2252.80;;;;;;5030391;28;20017;-77
2022/12/06 08:36:12;;;;;;;12.27;5.22;;;205.20;2252.80;;;;;;5031533;28;20091;-76
2022/12/06 08:38:39;;;;;;;12.25;5.50;;;205.20;2252.80;;;;;;5012008;28;20030;-74
2022/12/06 08:41:54;;;;;;;11.90;5.68;;;205.20;2252.80;;;;;;5004195;28;20025;-77
2022/12/06 08:43:52;;;;;;;12.70;5.95;;;205.30;2252.80;;;;;;5014710;28;20029;-78
2022/12/06 08:46:17;;;;;;;;;;;205.40;2252.80;;;;;;5012031;28;20116;-77
2022/12/06 08:48:43;;;;;;;15.13;7.68;;;205.50;2252.80;;;;;;5011570;28;19905;-75
2022/12/06 08:51:09;;;;;;;;;;;205.50;2252.80;;;;;;5012850;28;20068;-76
2022/12/06 08:53:34;;;;;;;20.60;8.95;;;205.60;2252.80;;;;;;5012537;28;19920;-76
2022/12/06 08:56:00;;;;;;;;;;;205.60;2252.80;;;;;;5017444;28;20034;-75
2022/12/06 08:58:25;;;;;;;24.77;8.77;;;205.70;2252.80;;;;;;5010846;28;19971;-75
2022/12/06 09:00:51;;;;;;;;;;;230.40;2252.80;;;;;;5014259;28;20097;-76
2022/12/06 09:03:17;;;;;;;18.27;7.50;;;230.50;2252.80;;;;;;5010966;28;20396;-76
2022/12/06 09:05:42;;;;;;;;;;;230.50;2252.80;;;;;;5028546;28;20083;-75
2022/12/06 09:08:08;;;;;;;16.15;6.15;;;230.60;2252.80;;;;;;5030987;28;19951;-75
2022/12/06 09:10:34;;;;;;;;;;;230.60;2252.80;;;;;;5027178;28;20104;-78
2022/12/06 09:12:59;;;;;;;12.68;6.90;;;230.60;2252.80;;;;;;5013097;28;19905;-77
2022/12/06 09:15:25;;;;;;;;;;;230.70;2252.80;;;;;;5013756;28;20021;-76
2022/12/06 09:17:50;;;;;;;25.27;10.98;;;230.60;2252.80;;;;;;5029547;28;19912;-75
2022/12/06 09:20:17;;;;;;;;;;;230.60;2252.80;;;;;;5023226;28;20034;-77
2022/12/06 09:22:44;;;;;;;16.95;7.30;;;230.70;2252.80;;;;;;5028395;28;19912;-77
2022/12/06 09:25:10;;;;;;;31.30;12.15;;;230.70;2252.80;;;;;;5010429;28;20030;-77
2022/12/06 09:27:36;;;;;;;22.25;10.82;;;230.90;2252.80;;;;;;5001871;28;20024;-77
2022/12/06 09:30:03;;;;;;;22.75;10.38;;;230.90;2252.80;;;;;;5000737;28;20034;-77
2022/12/06 09:32:28;;;;;;;17.42;8.63;;;231.00;2252.80;;;;;;5000701;28;20030;-78
2022/12/06 09:34:54;;;;;;;16.63;8.85;;;230.90;2252.80;;;;;;5008508;28;20124;-78
2022/12/06 09:37:20;;;;;;;;;;;230.90;2252.80;;;;;;5014620;28;20026;-78
2022/12/06 09:39:52;;;;;;;14.30;7.65;;;230.80;2252.80;;;;;;5023471;28;19905;-78
2022/12/06 09:42:40;;;;;;;16.42;7.15;;;230.80;2252.80;;;;;;5023309;28;20034;-79
2022/12/06 09:45:18;;;;;;;12.88;6.85;;;230.80;2252.80;;;;;;5005391;28;20032;-77
2022/12/06 09:48:28;;;;;;;15.15;8.23;;;230.80;2252.80;;;;;;5008818;28;20033;-78
2022/12/06 09:51:33;;;;;;;17.60;6.68;;;230.90;2252.80;;;;;;5027552;28;20014;-77
2022/12/06 09:54:23;;;;;;;16.45;8.63;;;231.00;2252.80;;;;;;5028034;28;20042;-77
2022/12/06 09:56:56;;;;;;;15.32;6.65;;;230.90;2252.80;;;;;;5027727;28;20065;-78
2022/12/06 09:59:48;;;;;;;29.13;12.40;;;231.00;2252.80;;;;;;5024486;28;20072;-78
2022/12/06 10:02:42;;;;;;;23.05;9.07;;;230.90;2252.80;;;;;;5027934;28;20065;-80
2022/12/06 10:05:33;;;;;;;22.17;10.88;;;230.90;2252.80;;;;;;5014316;28;20029;-78
2022/12/06 10:08:14;;;;;;;17.98;10.07;;;230.80;2252.80;;;;;;5020159;28;20026;-78
2022/12/06 10:11:05;;;;;;;30.83;12.98;;;230.80;2252.80;;;;;;5020920;28;20045;-77
2022/12/06 10:14:05;;;;;;;31.83;13.88;;;230.80;2252.80;;;;;;5008749;28;20497;-78
2022/12/06 10:16:46;;;;;;;30.75;11.63;;;230.80;2252.80;;;;;;5015950;28;20021;-78
2022/12/06 10:19:39;;;;;;;18.23;10.05;;;230.80;2252.80;;;;;;5021829;28;20032;-76
2022/12/06 10:22:23;;;;;;;22.55;9.52;;;230.80;2252.80;;;;;;5002300;28;20056;-75
2022/12/06 10:25:07;;;;;;;16.98;8.85;;;230.80;2252.80;;;;;;5027533;28;20037;-75
2022/12/06 10:27:38;;;;;;;23.20;10.90;;;230.80;2252.80;;;;;;5022844;28;20025;-76
2022/12/06 10:30:09;;;;;;;32.47;13.27;;;230.80;2252.80;;;;;;5013157;28;20132;-76
2022/12/06 10:32:53;;;;;;;33.15;13.55;;;230.90;2252.80;;;;;;5016303;28;20049;-76
2022/12/06 10:35:47;;;;;;;33.60;12.93;;;230.90;2252.80;;;;;;5034852;28;20040;-77
2022/12/06 10:38:29;;;;;;;37.30;13.15;;;230.90;2252.80;;;;;;5017320;28;20420;-74
2022/12/06 10:41:25;;;;;;;26.85;10.73;;;230.90;2252.80;;;;;;5017221;28;20063;-77
2022/12/06 10:44:19;;;;;;;62.72;17.30;;;231.00;2252.80;;;;;;5034774;28;20030;-77
2022/12/06 10:47:04;;;;;;;80.00;25.52;;;231.00;2252.80;;;;;;5006596;28;20053;-77
2022/12/06 10:49:44;;;;;;;29.55;12.65;;;231.00;2252.80;;;;;;5016656;28;20084;-78
2022/12/06 10:52:40;;;;;;;19.27;10.25;;;231.10;2252.80;;;;;;5015054;28;20018;-77
2022/12/06 10:55:08;;;;;;;15.10;8.35;;;231.20;2252.80;;;;;;5023061;28;20037;-79
2022/12/06 10:58:01;;;;;;;20.65;10.90;;;231.20;2252.80;;;;;;5032770;28;20032;-77
2022/12/06 11:00:33;;;;;;;26.88;12.75;;;231.30;2252.80;;;;;;5014460;28;20487;-77
2022/12/06 11:03:24;;;;;;;26.05;12.02;;;256.00;2252.80;;;;;;5014524;28;20118;-75
2022/12/06 11:06:08;;;;;;;25.38;13.15;;;256.00;2252.80;;;;;;5014609;28;20066;-75
2022/12/06 11:08:48;;;;;;;19.08;10.43;;;256.00;2252.80;;;;;;5014274;28;20048;-75
2022/12/06 11:11:25;;;;;;;20.85;11.10;;;256.00;2252.80;;;;;;5028066;28;20056;-77
2022/12/06 11:14:03;;;;;;;27.83;19.23;;;256.00;2252.80;;;;;;5005278;28;20025;-74
2022/12/06 11:16:37;;;;;;;25.90;12.05;;;256.00;2252.80;;;;;;5017850;28;20394;-76
2022/12/06 11:19:26;;;;;;;24.60;12.45;;;256.10;2252.80;;;;;;5014162;28;20033;-78
2022/12/06 11:22:06;;;;;;;21.35;10.43;;;256.10;2252.80;;;;;;5010797;28;20034;-76
2022/12/06 11:24:41;;;;;;;25.10;11.63;;;256.10;2252.80;;;;;;5026583;28;20092;-74
2022/12/06 11:27:23;;;;;;;26.25;11.75;;;256.20;2252.80;;;;;;5015940;28;20017;-76
2022/12/06 11:29:49;;;;;;;23.60;12.68;;;256.20;2252.80;;;;;;5016358;28;20037;-76
2022/12/06 11:32:17;;;;;;;39.90;16.17;;;256.20;2252.80;;;;;;5008349;28;20039;-76
2022/12/06 11:34:48;;;;;;;31.88;18.65;;;256.10;2252.80;;;;;;5040286;28;20033;-76
2022/12/06 11:37:23;;;;;;;33.28;15.02;;;256.10;2252.80;;;;;;5016015;28;20022;-76
2022/12/06 11:39:52;;;;;;;22.67;13.43;;;256.10;2252.80;;;;;;5023601;28;20046;-76
2022/12/06 11:42:24;;;;;;;34.67;16.58;;;256.10;2252.80;;;;;;5015151;28;20044;-75
2022/12/06 11:45:07;;;;;;;29.02;14.27;;;256.20;2252.80;;;;;;5029400;28;20029;-77
2022/12/06 11:47:33;;;;;;;25.15;13.75;;;256.10;2252.80;;;;;;5015620;28;20116;-75
2022/12/06 11:49:58;;;;;;;23.35;12.60;;;256.10;2252.80;;;;;;5033832;28;20100;-76
2022/12/06 11:52:36;;;;;;;28.25;14.23;;;256.00;2252.80;;;;;;5015958;28;20485;-77
2022/12/06 11:55:20;;;;;;;31.08;15.07;;;256.00;2252.80;;;;;;5003761;28;20052;-75
2022/12/06 11:58:15;;;;;;;31.00;13.63;;;256.00;2252.80;;;;;;5017274;28;20033;-76
2022/12/06 12:01:01;;;;;;;38.38;16.80;;;256.00;2252.80;;;;;;5019301;28;20022;-75
2022/12/06 12:03:33;;;;;;;38.85;16.35;;;256.00;2252.80;;;;;;5029837;28;20120;-76
2022/12/06 12:06:16;;;;;;;30.48;15.75;;;256.00;2252.80;;;;;;5021244;28;20062;-77
2022/12/06 12:08:53;;;;;;;33.92;16.45;;;256.00;2252.80;;;;;;5009446;28;20029;-77
2022/12/06 12:11:22;;;;;;;29.45;17.25;;;256.10;2252.80;;;;;;5012075;28;20120;-77
2022/12/06 12:13:54;;;;;;;36.30;18.88;;;256.10;2252.80;;;;;;5009606;28;20112;-76
2022/12/06 12:16:25;;;;;;;33.03;18.17;;;256.10;2252.80;;;;;;5002833;28;20386;-76
2022/12/06 12:19:25;;;;;;;38.20;20.35;;;256.10;2252.80;;;;;;5020513;28;20079;-74
2022/12/06 12:21:53;;;;;;;36.90;17.38;;;256.10;2252.80;;;;;;5006153;28;20017;-79
2022/12/06 12:24:40;;;;;;;46.45;22.27;;;256.00;2252.80;;;;;;5011894;28;20034;-78
2022/12/06 12:27:24;;;;;;;47.33;23.70;;;256.20;2252.80;;;;;;5025000;28;20031;-77
2022/12/06 12:30:15;;;;;;;34.05;16.83;;;256.30;2252.80;;;;;;5031714;28;20044;-77
2022/12/06 12:32:42;;;;;;;35.30;14.95;;;256.20;2252.80;;;;;;5013045;28;20083;-78
2022/12/06 12:35:20;;;;;;;30.13;14.70;;;256.20;2252.80;;;;;;5003499;28;20025;-77
2022/12/06 12:37:52;;;;;;;32.40;17.90;;;256.30;2252.80;;;;;;5029529;28;20029;-77
2022/12/06 12:40:37;;;;;;;30.30;15.80;;;256.30;2252.80;;;;;;5004440;28;20387;-77
2022/12/06 12:43:29;;;;;;;34.28;17.60;;;256.20;2252.80;;;;;;5017471;28;20053;-77
2022/12/06 12:46:21;;;;;;;27.15;15.10;;;256.30;2252.80;;;;;;4936203;29;20508;-77
2022/12/06 12:48:49;;;;;;;43.13;19.77;;;256.20;2252.80;;;;;;4945602;29;20381;-78
2022/12/06 12:51:34;;;;;;;40.13;19.45;;;256.20;2252.80;;;;;;4933610;29;20071;-78
2022/12/06 12:54:05;;;;;;;23.70;15.40;;;256.30;2252.80;;;;;;4951025;28;20182;-80
2022/12/06 12:56:34;;;;;;;51.45;25.30;;;256.20;2252.80;;;;;;4930580;29;20066;-80
2022/12/06 12:59:05;;;;;;;54.50;24.35;;;256.20;2252.80;;;;;;4936834;29;20058;-84
2022/12/06 13:01:53;;;;;;;47.70;27.13;;;256.10;2252.80;;;;;;4951266;28;20035;-77
2022/12/06 13:04:31;;;;;;;47.38;24.23;;;256.00;2252.80;;;;;;4949172;28;20051;-78
2022/12/06 13:07:06;;;;;;;82.03;38.83;;;256.00;2252.80;;;;;;4948400;28;20116;-78
2022/12/06 13:10:16;;;;;;;34.70;16.65;;;231.30;2252.80;;;;;;4951557;29;20042;-76
2022/12/06 13:13:02;;;;;;;40.13;21.30;;;231.30;2252.80;;;;;;4880440;29;20041;-80